createdAt,value
2023-03-18T00:02:13.427Z,9.80
2023-03-18T00:04:41.192Z,9.80
2023-03-18T00:07:08.589Z,9.80
2023-03-18T00:09:36.579Z,9.80
2023-03-18T00:12:04.993Z,9.80
2023-03-18T00:14:33.005Z,9.70
2023-03-18T00:17:00.157Z,9.70
2023-03-18T00:19:27.417Z,9.70
2023-03-18T00:21:55.851Z,9.70
2023-03-18T00:24:22.956Z,9.60
2023-03-18T00:26:50.135Z,9.60
2023-03-18T00:29:17.759Z,9.60
2023-03-18T00:31:46.313Z,9.50
2023-03-18T00:34:14.876Z,9.50
2023-03-18T00:36:41.983Z,9.40
2023-03-18T00:39:09.366Z,9.40
2023-03-18T00:41:38.261Z,9.40
2023-03-18T00:44:06.197Z,9.30
2023-03-18T00:46:38.291Z,9.40
2023-03-18T00:49:08.834Z,9.40
2023-03-18T00:51:37.628Z,9.40
2023-03-18T00:54:07.428Z,9.40
2023-03-18T00:56:37.619Z,9.40
2023-03-18T00:59:06.270Z,9.40
2023-03-18T01:01:33.708Z,9.50
2023-03-18T01:04:02.231Z,9.50
2023-03-18T01:06:32.500Z,9.50
2023-03-18T01:09:01.645Z,9.60
2023-03-18T01:11:29.398Z,9.70
2023-03-18T01:13:57.303Z,9.70
2023-03-18T01:16:24.808Z,9.70
2023-03-18T01:18:53.801Z,9.60
2023-03-18T01:21:21.197Z,9.60
2023-03-18T01:23:48.412Z,9.60
2023-03-18T01:26:15.690Z,9.50
2023-03-18T01:28:43.166Z,9.50
2023-03-18T01:31:10.700Z,9.40
2023-03-18T01:33:37.901Z,9.40
2023-03-18T01:36:05.553Z,9.40
2023-03-18T01:38:33.045Z,9.40
2023-03-18T01:41:01.770Z,9.40
2023-03-18T01:43:35.366Z,9.40
2023-03-18T01:46:24.929Z,9.40
2023-03-18T01:48:52.286Z,9.50
2023-03-18T01:51:20.636Z,9.50
2023-03-18T01:53:49.840Z,9.50
2023-03-18T01:56:18.902Z,9.50
2023-03-18T01:58:51.276Z,9.40
2023-03-18T02:01:32.050Z,9.50
2023-03-18T02:04:02.350Z,9.40
2023-03-18T02:06:29.527Z,9.30
2023-03-18T02:08:57.073Z,9.30
2023-03-18T02:13:51.001Z,9.20
2023-03-18T02:16:28.253Z,9.30
2023-03-18T02:18:59.493Z,9.20
2023-03-18T02:21:55.194Z,9.20
2023-03-18T02:24:49.916Z,9.10
2023-03-18T02:27:17.147Z,9.00
2023-03-18T02:29:44.595Z,9.00
2023-03-18T02:32:12.600Z,9.20
2023-03-18T02:34:40.953Z,9.10
2023-03-18T02:37:08.407Z,9.00
2023-03-18T02:39:35.777Z,9.00
2023-03-18T02:42:03.175Z,9.30
2023-03-18T02:44:30.639Z,9.20
2023-03-18T02:47:06.814Z,9.10
2023-03-18T02:49:33.959Z,9.00
2023-03-18T02:52:01.327Z,9.00
2023-03-18T02:54:30.190Z,9.10
2023-03-18T02:56:57.854Z,9.30
2023-03-18T02:59:25.633Z,9.30
2023-03-18T03:01:55.336Z,9.30
2023-03-18T03:04:25.680Z,9.30
2023-03-18T03:06:54.595Z,9.40
2023-03-18T03:09:22.862Z,9.40
2023-03-18T03:11:50.296Z,9.30
2023-03-18T03:14:18.096Z,9.10
2023-03-18T03:16:45.348Z,9.10
2023-03-18T03:19:13.099Z,9.10
2023-03-18T03:21:40.333Z,9.10
2023-03-18T03:24:08.273Z,9.00
2023-03-18T03:26:36.391Z,8.90
2023-03-18T03:29:05.162Z,8.80
2023-03-18T03:31:32.839Z,8.70
2023-03-18T03:34:00.122Z,8.70
2023-03-18T03:36:27.360Z,8.70
2023-03-18T03:38:54.522Z,8.70
2023-03-18T03:41:21.605Z,8.60
2023-03-18T03:43:49.171Z,8.60
2023-03-18T03:46:16.960Z,8.60
2023-03-18T03:48:44.899Z,8.60
2023-03-18T03:51:12.326Z,8.60
2023-03-18T03:53:39.752Z,8.60
2023-03-18T03:56:09.230Z,8.50
2023-03-18T03:58:36.646Z,8.50
2023-03-18T04:01:06.576Z,8.40
2023-03-18T04:03:34.035Z,8.50
2023-03-18T04:06:01.667Z,8.40
2023-03-18T04:08:29.228Z,8.30
2023-03-18T04:10:57.007Z,8.40
2023-03-18T04:13:24.966Z,8.40
2023-03-18T04:15:52.112Z,8.50
2023-03-18T04:18:19.179Z,8.40
2023-03-18T04:20:46.329Z,8.30
2023-03-18T04:23:14.223Z,8.30
2023-03-18T04:25:41.486Z,8.30
2023-03-18T04:28:08.932Z,8.40
2023-03-18T04:30:36.143Z,8.20
2023-03-18T04:33:03.659Z,8.10
2023-03-18T04:35:30.835Z,8.10
2023-03-18T04:37:57.974Z,8.10
2023-03-18T04:40:25.424Z,8.10
2023-03-18T04:42:53.249Z,8.20
2023-03-18T04:45:20.527Z,8.20
2023-03-18T04:47:47.832Z,8.30
2023-03-18T04:50:15.589Z,8.30
2023-03-18T04:52:44.834Z,8.20
2023-03-18T04:55:16.582Z,8.30
2023-03-18T04:57:44.544Z,8.30
2023-03-18T05:00:17.319Z,8.30
2023-03-18T05:02:45.397Z,8.30
2023-03-18T05:05:12.703Z,8.30
2023-03-18T05:07:39.932Z,8.20
2023-03-18T05:10:07.781Z,8.20
2023-03-18T05:12:35.633Z,8.00
2023-03-18T05:15:03.220Z,7.80
2023-03-18T05:17:30.659Z,7.80
2023-03-18T05:19:58.003Z,7.70
2023-03-18T05:22:25.359Z,7.60
2023-03-18T05:24:52.589Z,7.60
2023-03-18T05:27:20.062Z,7.60
2023-03-18T05:29:47.355Z,7.60
2023-03-18T05:32:15.285Z,7.60
2023-03-18T05:34:43.413Z,7.60
2023-03-18T05:37:12.805Z,7.70
2023-03-18T05:39:40.350Z,7.80
2023-03-18T05:42:07.722Z,7.70
2023-03-18T05:44:35.253Z,7.60
2023-03-18T05:47:02.817Z,7.40
2023-03-18T05:49:29.938Z,7.30
2023-03-18T05:51:57.656Z,7.30
2023-03-18T05:54:25.110Z,7.30
2023-03-18T05:56:52.789Z,7.30
2023-03-18T05:59:22.121Z,7.40
2023-03-18T06:01:49.369Z,7.30
2023-03-18T06:04:19.199Z,7.20
2023-03-18T06:06:46.754Z,7.20
2023-03-18T06:09:15.048Z,7.20
2023-03-18T06:11:42.277Z,7.10
2023-03-18T06:14:09.840Z,7.10
2023-03-18T06:16:37.426Z,7.10
2023-03-18T06:19:05.367Z,7.10
2023-03-18T06:21:33.206Z,7.10
2023-03-18T06:24:01.652Z,7.20
2023-03-18T06:26:29.454Z,7.20
2023-03-18T06:28:58.489Z,7.20
2023-03-18T06:31:26.431Z,7.20
2023-03-18T06:33:53.833Z,7.20
2023-03-18T06:36:21.819Z,7.20
2023-03-18T06:38:49.323Z,7.20
2023-03-18T06:41:16.910Z,7.20
2023-03-18T06:43:44.722Z,7.20
2023-03-18T06:46:14.490Z,7.20
2023-03-18T06:48:41.785Z,7.10
2023-03-18T06:51:08.953Z,7.10
2023-03-18T06:53:36.600Z,7.10
2023-03-18T06:56:04.448Z,7.20
2023-03-18T06:58:32.126Z,7.20
2023-03-18T07:00:59.583Z,7.20
2023-03-18T07:03:28.245Z,7.30
2023-03-18T07:05:56.128Z,7.30
2023-03-18T07:08:23.654Z,7.40
2023-03-18T07:10:57.071Z,7.40
2023-03-18T07:13:25.037Z,7.60
2023-03-18T07:15:52.319Z,7.60
2023-03-18T07:18:19.772Z,7.60
2023-03-18T07:20:46.994Z,7.70
2023-03-18T07:23:14.844Z,7.70
2023-03-18T07:25:42.498Z,7.80
2023-03-18T07:28:10.064Z,7.90
2023-03-18T07:30:39.122Z,7.90
2023-03-18T07:33:06.546Z,8.00
2023-03-18T07:35:34.022Z,8.10
2023-03-18T07:38:01.469Z,8.20
2023-03-18T07:40:28.630Z,8.40
2023-03-18T07:42:55.774Z,8.60
2023-03-18T07:45:22.892Z,8.70
2023-03-18T07:47:50.164Z,8.90
2023-03-18T07:50:17.380Z,9.10
2023-03-18T07:52:44.870Z,9.20
2023-03-18T07:55:12.576Z,9.40
2023-03-18T07:57:39.973Z,9.60
2023-03-18T08:00:08.800Z,9.70
2023-03-18T08:02:36.581Z,9.80
2023-03-18T08:05:04.407Z,9.90
2023-03-18T08:07:31.574Z,10.00
2023-03-18T08:09:58.473Z,10.10
2023-03-18T08:12:26.342Z,10.20
2023-03-18T08:14:53.858Z,10.40
2023-03-18T08:17:21.377Z,10.40
2023-03-18T08:19:49.254Z,10.60
2023-03-18T08:22:16.898Z,10.70
2023-03-18T08:24:45.847Z,10.80
2023-03-18T08:27:13.148Z,11.00
2023-03-18T08:29:40.336Z,11.20
2023-03-18T08:32:07.850Z,11.30
2023-03-18T08:34:35.955Z,11.50
2023-03-18T08:37:03.413Z,11.60
2023-03-18T08:39:30.747Z,11.90
2023-03-18T08:41:57.898Z,12.10
2023-03-18T08:44:24.967Z,12.30
2023-03-18T08:46:52.283Z,12.50
2023-03-18T08:49:19.811Z,12.90
2023-03-18T08:51:47.176Z,13.10
2023-03-18T08:54:15.206Z,13.30
2023-03-18T08:56:42.830Z,13.70
2023-03-18T08:59:10.495Z,14.10
2023-03-18T09:01:38.174Z,14.40
2023-03-18T09:04:05.330Z,14.70
2023-03-18T09:06:32.781Z,15.10
2023-03-18T09:08:59.621Z,15.40
2023-03-18T09:11:26.773Z,15.70
2023-03-18T09:13:53.829Z,16.00
2023-03-18T09:16:20.784Z,16.20
2023-03-18T09:18:48.953Z,16.50
2023-03-18T09:21:15.968Z,16.70
2023-03-18T09:23:43.208Z,17.00
2023-03-18T09:26:10.259Z,17.10
2023-03-18T09:28:37.363Z,17.40
2023-03-18T09:31:06.000Z,17.60
2023-03-18T09:33:33.333Z,17.80
2023-03-18T09:36:00.258Z,18.10
2023-03-18T09:38:27.742Z,18.30
2023-03-18T09:41:09.799Z,18.40
2023-03-18T09:43:53.584Z,18.70
2023-03-18T09:46:38.718Z,18.80
2023-03-18T09:49:24.814Z,19.00
2023-03-18T09:52:11.315Z,19.10
2023-03-18T09:54:47.770Z,19.20
2023-03-18T09:57:33.264Z,19.40
2023-03-18T10:00:27.886Z,19.50
2023-03-18T10:03:14.840Z,19.70
2023-03-18T10:06:02.256Z,19.70
2023-03-18T10:08:49.685Z,19.80
2023-03-18T10:11:22.083Z,19.90
2023-03-18T10:14:08.856Z,20.00
2023-03-18T10:17:04.860Z,20.10
2023-03-18T10:19:33.707Z,20.10
2023-03-18T10:22:08.156Z,20.30
2023-03-18T10:24:35.208Z,20.40
2023-03-18T10:27:17.999Z,20.60
2023-03-18T10:30:04.271Z,20.60
2023-03-18T10:33:02.572Z,20.50
2023-03-18T10:35:33.595Z,20.50
2023-03-18T10:38:18.564Z,20.40
2023-03-18T10:40:47.796Z,20.40
2023-03-18T10:43:32.018Z,20.30
2023-03-18T10:46:10.339Z,20.40
2023-03-18T10:48:43.801Z,20.30
2023-03-18T10:51:34.604Z,20.40
2023-03-18T10:54:34.396Z,20.60
2023-03-18T10:57:01.424Z,20.90
2023-03-18T10:59:30.000Z,21.00
2023-03-18T11:02:05.015Z,20.90
2023-03-18T11:04:42.402Z,20.90
2023-03-18T11:07:18.844Z,21.10
2023-03-18T11:09:46.601Z,21.30
2023-03-18T11:12:29.163Z,21.40
2023-03-18T11:14:56.549Z,21.50
2023-03-18T11:17:33.202Z,21.60
2023-03-18T11:20:22.126Z,21.50
2023-03-18T11:22:52.448Z,21.60
2023-03-18T11:25:26.660Z,21.90
2023-03-18T11:28:02.478Z,22.10
2023-03-18T11:30:35.254Z,21.80
2023-03-18T11:33:12.033Z,21.40
2023-03-18T11:35:55.154Z,21.40
2023-03-18T11:38:28.790Z,21.60
2023-03-18T11:41:11.746Z,22.00
2023-03-18T11:43:39.505Z,22.30
2023-03-18T11:46:11.145Z,22.50
2023-03-18T11:48:44.249Z,22.70
2023-03-18T11:51:42.917Z,22.80
2023-03-18T11:54:47.780Z,23.00
2023-03-18T11:57:40.666Z,23.20
2023-03-18T12:00:19.877Z,23.20
2023-03-18T12:02:59.835Z,23.00
2023-03-18T12:05:30.623Z,23.10
2023-03-18T12:08:15.857Z,23.40
2023-03-18T12:11:06.033Z,23.40
2023-03-18T12:13:44.891Z,23.50
2023-03-18T12:16:25.498Z,23.60
2023-03-18T12:18:55.855Z,23.80
2023-03-18T12:21:40.298Z,23.80
2023-03-18T12:24:27.381Z,23.70
2023-03-18T12:27:07.375Z,23.50
2023-03-18T12:30:03.515Z,23.60
2023-03-18T12:32:58.638Z,23.60
2023-03-18T12:35:37.985Z,23.50
2023-03-18T12:38:18.380Z,23.50
2023-03-18T12:40:51.262Z,23.60
2023-03-18T12:43:39.696Z,23.70
2023-03-18T12:46:40.228Z,23.70
2023-03-18T12:49:22.987Z,23.90
2023-03-18T12:52:13.958Z,24.20
2023-03-18T12:54:49.344Z,24.50
2023-03-18T12:57:24.480Z,24.80
2023-03-18T13:00:18.784Z,25.10
2023-03-18T13:03:14.199Z,24.70
2023-03-18T13:05:52.420Z,24.50
2023-03-18T13:08:28.448Z,24.40
2023-03-18T13:11:05.410Z,24.40
2023-03-18T13:13:37.567Z,24.50
2023-03-18T13:16:06.958Z,24.60
2023-03-18T13:18:42.976Z,24.70
2023-03-18T13:21:15.949Z,24.80
2023-03-18T13:24:14.406Z,24.90
2023-03-18T13:27:05.722Z,24.70
2023-03-18T13:29:45.283Z,24.80
2023-03-18T13:32:49.808Z,24.80
2023-03-18T13:35:20.633Z,24.90
2023-03-18T13:38:06.962Z,24.90
2023-03-18T13:40:34.099Z,24.80
2023-03-18T13:43:02.426Z,24.70
2023-03-18T13:45:34.134Z,24.70
2023-03-18T13:48:07.512Z,24.40
2023-03-18T13:50:38.076Z,24.30
2023-03-18T13:53:15.072Z,24.60
2023-03-18T13:55:54.414Z,24.70
2023-03-18T13:58:33.704Z,24.90
2023-03-18T14:01:01.110Z,24.60
2023-03-18T14:03:33.254Z,24.30
2023-03-18T14:06:10.324Z,24.00
2023-03-18T14:08:43.241Z,24.00
2023-03-18T14:11:26.186Z,23.80
2023-03-18T14:14:06.183Z,23.70
2023-03-18T14:16:37.810Z,23.50
2023-03-18T14:19:19.310Z,23.50
2023-03-18T14:21:53.340Z,23.30
2023-03-18T14:24:23.171Z,23.20
2023-03-18T14:27:04.648Z,23.20
2023-03-18T14:29:37.519Z,23.30
2023-03-18T14:32:08.557Z,23.40
2023-03-18T14:34:58.853Z,23.40
2023-03-18T14:37:30.206Z,23.30
2023-03-18T14:40:06.227Z,23.20
2023-03-18T14:42:56.643Z,23.10
2023-03-18T14:45:44.965Z,22.90
2023-03-18T14:48:29.330Z,22.60
2023-03-18T14:51:00.385Z,22.50
2023-03-18T14:53:41.972Z,22.50
2023-03-18T14:56:30.308Z,22.50
2023-03-18T14:58:57.765Z,22.70
2023-03-18T15:01:34.003Z,22.60
2023-03-18T15:04:02.540Z,22.40
2023-03-18T15:06:30.171Z,22.30
2023-03-18T15:09:06.048Z,22.30
2023-03-18T15:11:41.592Z,22.30
2023-03-18T15:14:13.353Z,22.40
2023-03-18T15:16:40.423Z,22.40
2023-03-18T15:19:11.748Z,22.50
2023-03-18T15:21:38.903Z,22.60
2023-03-18T15:24:08.003Z,22.40
2023-03-18T15:26:40.340Z,22.40
2023-03-18T15:29:24.106Z,22.10
2023-03-18T15:31:52.959Z,21.90
2023-03-18T15:34:21.679Z,21.70
2023-03-18T15:36:57.740Z,21.60
2023-03-18T15:39:40.925Z,21.50
2023-03-18T15:42:17.333Z,21.30
2023-03-18T15:44:46.620Z,21.30
2023-03-18T15:47:17.680Z,21.30
2023-03-18T15:50:13.510Z,21.10
2023-03-18T15:52:42.992Z,21.10
2023-03-18T15:55:35.626Z,21.10
2023-03-18T15:58:05.637Z,21.00
2023-03-18T16:00:34.289Z,21.00
2023-03-18T16:03:01.879Z,21.00
2023-03-18T16:05:29.708Z,20.90
2023-03-18T16:07:57.590Z,20.80
2023-03-18T16:10:26.504Z,20.80
2023-03-18T16:12:58.427Z,20.80
2023-03-18T16:15:28.001Z,20.80
2023-03-18T16:17:56.423Z,20.80
2023-03-18T16:20:28.977Z,20.80
2023-03-18T16:22:58.347Z,20.70
2023-03-18T16:25:26.543Z,20.60
2023-03-18T16:27:59.814Z,20.50
2023-03-18T16:30:30.038Z,20.50
2023-03-18T16:32:58.418Z,20.40
2023-03-18T16:35:30.795Z,20.30
2023-03-18T16:37:59.333Z,20.40
2023-03-18T16:40:28.518Z,20.30
2023-03-18T16:42:56.123Z,20.20
2023-03-18T16:45:31.072Z,20.00
2023-03-18T16:48:07.841Z,20.00
2023-03-18T16:50:39.102Z,19.80
2023-03-18T16:53:17.447Z,19.70
2023-03-18T16:55:49.717Z,19.50
2023-03-18T16:58:22.282Z,19.30
2023-03-18T17:00:49.740Z,19.20
2023-03-18T17:03:18.328Z,19.10
2023-03-18T17:05:50.257Z,19.00
2023-03-18T17:08:18.351Z,18.90
2023-03-18T17:10:46.807Z,18.80
2023-03-18T17:13:23.920Z,18.70
2023-03-18T17:15:51.865Z,18.60
2023-03-18T17:18:21.760Z,18.50
2023-03-18T17:20:49.518Z,18.40
2023-03-18T17:23:26.656Z,18.20
2023-03-18T17:25:55.387Z,18.10
2023-03-18T17:28:27.738Z,18.00
2023-03-18T17:30:55.021Z,17.90
2023-03-18T17:33:29.442Z,17.80
2023-03-18T17:35:56.842Z,17.70
2023-03-18T17:38:24.322Z,17.60
2023-03-18T17:40:51.405Z,17.50
2023-03-18T17:43:30.577Z,17.30
2023-03-18T17:45:59.229Z,17.30
2023-03-18T17:48:28.829Z,17.20
2023-03-18T17:51:01.703Z,17.10
2023-03-18T17:53:41.395Z,17.00
2023-03-18T17:56:11.709Z,16.90
2023-03-18T17:58:39.548Z,16.80
2023-03-18T18:01:12.280Z,16.80
2023-03-18T18:03:40.399Z,16.70
2023-03-18T18:06:11.843Z,16.70
2023-03-18T18:08:40.226Z,16.50
2023-03-18T18:11:24.492Z,16.50
2023-03-18T18:14:02.178Z,16.40
2023-03-18T18:16:29.322Z,16.40
2023-03-18T18:18:56.258Z,16.30
2023-03-18T18:21:24.482Z,16.20
2023-03-18T18:23:52.404Z,16.20
2023-03-18T18:26:22.020Z,16.00
2023-03-18T18:28:51.299Z,15.90
2023-03-18T18:31:19.971Z,15.70
2023-03-18T18:33:50.062Z,15.60
2023-03-18T18:36:17.995Z,15.50
2023-03-18T18:38:45.077Z,15.30
2023-03-18T18:41:12.169Z,15.30
2023-03-18T18:43:39.132Z,15.20
2023-03-18T18:46:14.832Z,15.10
2023-03-18T18:48:43.881Z,15.00
2023-03-18T18:51:17.500Z,14.90
2023-03-18T18:53:45.428Z,14.80
2023-03-18T18:56:29.093Z,14.70
2023-03-18T18:58:56.641Z,14.70
2023-03-18T19:01:23.900Z,14.50
2023-03-18T19:03:51.333Z,14.50
2023-03-18T19:06:29.129Z,14.40
2023-03-18T19:08:58.756Z,14.30
2023-03-18T19:11:27.599Z,14.20
2023-03-18T19:13:55.331Z,14.20
2023-03-18T19:16:32.661Z,14.00
2023-03-18T19:19:00.322Z,14.00
2023-03-18T19:21:27.336Z,13.90
2023-03-18T19:23:54.768Z,13.90
2023-03-18T19:26:22.019Z,13.90
2023-03-18T19:28:57.750Z,13.80
2023-03-18T19:31:30.918Z,13.70
2023-03-18T19:34:00.198Z,13.50
2023-03-18T19:36:39.952Z,13.40
2023-03-18T19:39:17.980Z,13.20
2023-03-18T19:41:49.605Z,13.20
2023-03-18T19:44:24.939Z,13.20
2023-03-18T19:46:56.412Z,13.10
2023-03-18T19:49:28.413Z,13.10
2023-03-18T19:51:56.126Z,13.10
2023-03-18T19:54:32.970Z,13.00
2023-03-18T19:57:03.684Z,13.00
2023-03-18T19:59:38.238Z,13.00
2023-03-18T20:02:35.962Z,13.00
2023-03-18T20:05:15.608Z,13.00
2023-03-18T20:07:42.744Z,13.00
2023-03-18T20:10:11.894Z,13.00
2023-03-18T20:12:42.005Z,12.90
2023-03-18T20:15:20.855Z,13.00
2023-03-18T20:17:49.863Z,13.00
2023-03-18T20:20:20.252Z,12.90
2023-03-18T20:22:53.127Z,12.90
2023-03-18T20:25:28.935Z,12.80
2023-03-18T20:27:57.866Z,12.80
2023-03-18T20:30:27.961Z,12.80
2023-03-18T20:32:55.613Z,12.80
2023-03-18T20:35:27.340Z,12.70
2023-03-18T20:37:56.165Z,12.50
2023-03-18T20:40:29.402Z,12.50
2023-03-18T20:42:56.990Z,12.40
2023-03-18T20:45:24.996Z,12.30
2023-03-18T20:47:52.470Z,12.30
2023-03-18T20:50:22.806Z,12.30
2023-03-18T20:52:50.709Z,12.20
2023-03-18T20:55:27.111Z,12.20
2023-03-18T20:57:54.421Z,12.20
2023-03-18T21:00:26.934Z,12.00
2023-03-18T21:02:57.537Z,11.90
2023-03-18T21:05:28.201Z,11.90
2023-03-18T21:07:55.899Z,11.90
2023-03-18T21:10:27.352Z,11.90
2023-03-18T21:12:54.516Z,11.90
2023-03-18T21:15:27.224Z,11.80
2023-03-18T21:17:55.124Z,11.80
2023-03-18T21:20:27.227Z,11.80
2023-03-18T21:22:54.737Z,11.60
2023-03-18T21:25:26.812Z,11.50
2023-03-18T21:27:54.262Z,11.40
2023-03-18T21:30:22.659Z,11.50
2023-03-18T21:32:53.110Z,11.40
2023-03-18T21:35:25.108Z,11.40
2023-03-18T21:37:52.826Z,11.40
2023-03-18T21:40:22.513Z,11.30
2023-03-18T21:42:50.833Z,11.20
2023-03-18T21:45:23.035Z,11.10
2023-03-18T21:47:52.562Z,11.10
2023-03-18T21:50:25.281Z,11.00
2023-03-18T21:52:54.372Z,11.00
2023-03-18T21:55:22.316Z,11.00
2023-03-18T21:57:49.722Z,10.90
2023-03-18T22:00:21.187Z,10.80
2023-03-18T22:02:49.148Z,10.70
2023-03-18T22:05:21.885Z,10.50
2023-03-18T22:07:50.590Z,10.60
2023-03-18T22:10:23.322Z,10.40
2023-03-18T22:12:51.146Z,10.40
2023-03-18T22:15:28.019Z,10.40
2023-03-18T22:17:55.491Z,10.40
2023-03-18T22:20:23.602Z,10.40
2023-03-18T22:22:51.463Z,10.30
2023-03-18T22:25:37.137Z,10.40
2023-03-18T22:28:05.240Z,10.20
2023-03-18T22:30:34.199Z,10.00
2023-03-18T22:33:03.981Z,10.00
2023-03-18T22:35:31.499Z,10.00
2023-03-18T22:37:58.797Z,10.00
2023-03-18T22:40:31.432Z,10.00
2023-03-18T22:43:01.103Z,9.90
2023-03-18T22:45:33.785Z,9.80
2023-03-18T22:48:04.846Z,9.80
2023-03-18T22:50:34.759Z,9.80
2023-03-18T22:53:05.602Z,9.90
2023-03-18T22:55:38.884Z,9.80
2023-03-18T22:58:06.867Z,9.70
2023-03-18T23:00:42.394Z,9.70
2023-03-18T23:03:18.560Z,9.70
2023-03-18T23:05:48.121Z,9.80
2023-03-18T23:08:16.183Z,9.80
2023-03-18T23:10:44.218Z,9.80
2023-03-18T23:13:13.332Z,9.80
2023-03-18T23:15:40.692Z,9.80
2023-03-18T23:18:16.026Z,9.80
2023-03-18T23:20:45.349Z,9.80
2023-03-18T23:23:13.648Z,9.70
2023-03-18T23:25:42.081Z,9.60
2023-03-18T23:28:09.509Z,9.70
2023-03-18T23:30:39.076Z,9.70
2023-03-18T23:33:07.372Z,9.70
2023-03-18T23:35:34.881Z,9.70
2023-03-18T23:38:02.346Z,9.70
2023-03-18T23:40:29.566Z,9.70
2023-03-18T23:42:56.676Z,9.70
2023-03-18T23:45:24.971Z,9.80
2023-03-18T23:47:52.200Z,9.80
2023-03-18T23:50:19.496Z,9.70
2023-03-18T23:52:46.880Z,9.80
2023-03-18T23:55:32.674Z,9.70
2023-03-18T23:58:00.680Z,9.60
